Time;durP1;ratioP1;P1;durP2;ratioP2;P2;SDS_P1;SDS_P2;PMS_P1;PMS_P2;Temp;Humidity;BMP_temperature;BMP_pressure;BME280_temperature;BME280_humidity;BME280_pressure;Samples;Min_cycle;Max_cycle;Signal;HPM_P1;HPM_P2
2021/01/26 00:00:17;;;;;;;1.35;0.80;;;21.10;47.10;;;;;;5026901;28;20025;-63
2021/01/26 00:02:43;;;;;;;1.55;0.80;;;21.00;47.10;;;;;;5027435;28;20026;-62
2021/01/26 00:05:10;;;;;;;1.08;0.77;;;21.00;47.10;;;;;;5025925;28;20041;-61
2021/01/26 00:07:36;;;;;;;1.40;0.85;;;21.00;47.10;;;;;;5028936;28;20056;-62
2021/01/26 00:10:04;;;;;;;1.88;0.90;;;21.00;47.10;;;;;;5060821;28;20488;-64
2021/01/26 00:12:29;;;;;;;1.48;0.90;;;21.00;47.10;;;;;;5028478;28;20051;-61
2021/01/26 00:14:55;;;;;;;0.95;0.70;;;20.90;47.00;;;;;;5028902;28;20064;-62
2021/01/26 00:17:21;;;;;;;1.00;0.80;;;20.90;47.10;;;;;;5028728;28;20033;-64
2021/01/26 00:19:46;;;;;;;3.00;0.80;;;20.90;47.10;;;;;;5036193;28;20057;-63
2021/01/26 00:22:12;;;;;;;1.02;0.77;;;20.90;47.10;;;;;;5040571;28;20045;-64
2021/01/26 00:24:38;;;;;;;2.33;0.80;;;20.90;47.10;;;;;;5018173;28;20033;-62
2021/01/26 00:27:04;;;;;;;1.80;0.90;;;20.90;47.10;;;;;;5043148;28;20087;-64
2021/01/26 00:29:29;;;;;;;1.40;0.80;;;20.90;47.10;;;;;;5027252;28;20099;-62
2021/01/26 00:31:55;;;;;;;0.98;0.75;;;20.90;47.10;;;;;;5026462;28;20037;-64
2021/01/26 00:34:21;;;;;;;1.13;0.88;;;20.90;47.10;;;;;;5027632;28;20036;-62
2021/01/26 00:36:47;;;;;;;1.27;0.85;;;20.90;47.20;;;;;;5024433;28;20038;-64
2021/01/26 00:39:13;;;;;;;1.00;0.65;;;20.90;47.10;;;;;;5019972;28;20029;-63
2021/01/26 00:41:38;;;;;;;0.98;0.60;;;20.80;47.10;;;;;;5059115;28;20042;-62
2021/01/26 00:44:04;;;;;;;0.88;0.70;;;20.80;47.10;;;;;;5027931;28;20029;-62
2021/01/26 00:46:29;;;;;;;1.10;0.80;;;20.80;47.10;;;;;;5027959;28;20069;-62
2021/01/26 00:48:55;;;;;;;1.10;0.70;;;20.80;47.20;;;;;;5027773;28;20468;-64
2021/01/26 00:51:21;;;;;;;1.00;0.70;;;20.80;47.20;;;;;;5026126;28;20116;-62
2021/01/26 00:53:46;;;;;;;1.83;0.70;;;20.80;47.20;;;;;;5028446;28;20041;-64
2021/01/26 00:56:12;;;;;;;1.20;0.80;;;20.80;47.20;;;;;;5026427;28;20026;-63
2021/01/26 00:58:37;;;;;;;1.13;0.65;;;20.80;47.20;;;;;;5060246;28;20029;-61
2021/01/26 01:01:03;;;;;;;1.23;0.75;;;20.80;47.20;;;;;;5026546;28;20038;-61
2021/01/26 01:03:29;;;;;;;1.02;0.68;;;20.70;47.20;;;;;;5026024;28;20037;-63
2021/01/26 01:05:55;;;;;;;1.58;0.80;;;20.70;47.20;;;;;;5026332;28;20021;-64
2021/01/26 01:08:21;;;;;;;0.98;0.80;;;20.70;47.20;;;;;;5027671;28;20022;-61
2021/01/26 01:10:49;;;;;;;1.73;0.80;;;20.70;47.20;;;;;;5027371;28;20078;-61
2021/01/26 01:13:14;;;;;;;1.30;0.80;;;20.70;47.20;;;;;;5027924;28;20084;-62
2021/01/26 01:15:40;;;;;;;1.23;0.80;;;20.70;47.20;;;;;;5019634;28;20026;-63
2021/01/26 01:18:06;;;;;;;2.30;1.00;;;20.70;47.70;;;;;;5026402;28;20021;-62
2021/01/26 01:20:32;;;;;;;0.93;0.70;;;20.70;47.30;;;;;;5059126;28;20041;-63
2021/01/26 01:22:58;;;;;;;0.77;0.70;;;20.70;47.20;;;;;;5018340;28;20021;-63
2021/01/26 01:25:24;;;;;;;0.70;0.70;;;20.70;47.30;;;;;;5025184;28;20067;-63
2021/01/26 01:27:49;;;;;;;1.20;0.80;;;20.70;47.30;;;;;;5027005;28;20163;-61
2021/01/26 01:30:21;;;;;;;1.27;0.73;;;20.70;47.30;;;;;;5059374;28;20172;-62
2021/01/26 01:32:47;;;;;;;1.30;0.90;;;20.60;47.20;;;;;;5026842;28;20360;-64
2021/01/26 01:35:14;;;;;;;1.08;0.70;;;20.60;47.30;;;;;;5022764;28;20021;-61
2021/01/26 01:37:39;;;;;;;0.88;0.70;;;20.60;47.20;;;;;;5026301;28;20028;-61
2021/01/26 01:40:08;;;;;;;0.93;0.60;;;20.60;47.30;;;;;;5026666;28;20100;-64
2021/01/26 01:42:34;;;;;;;0.60;0.60;;;20.60;47.30;;;;;;5027283;28;20056;-63
2021/01/26 01:44:59;;;;;;;1.35;0.70;;;20.60;47.30;;;;;;5026139;28;20049;-62
2021/01/26 01:47:29;;;;;;;0.95;0.68;;;20.60;47.30;;;;;;5025976;28;20041;-63
2021/01/26 01:49:59;;;;;;;0.90;0.70;;;20.60;47.30;;;;;;5041378;28;20061;-62
2021/01/26 01:52:32;;;;;;;1.53;0.83;;;20.60;47.90;;;;;;5026600;28;20096;-63
2021/01/26 01:55:05;;;;;;;1.02;0.73;;;20.60;47.30;;;;;;5024870;28;20284;-64
2021/01/26 01:57:36;;;;;;;1.00;0.70;;;20.50;47.30;;;;;;5026082;28;20049;-62
2021/01/26 02:00:07;;;;;;;0.88;0.80;;;20.50;47.30;;;;;;5026707;28;20025;-64
2021/01/26 02:02:34;;;;;;;2.15;0.90;;;20.50;47.30;;;;;;5020451;28;20045;-61
2021/01/26 02:05:03;;;;;;;1.10;0.70;;;20.50;47.30;;;;;;5057170;28;20026;-62
2021/01/26 02:07:32;;;;;;;1.15;0.75;;;20.50;47.40;;;;;;5025555;28;20028;-62
2021/01/26 02:09:57;;;;;;;0.85;0.70;;;20.50;47.40;;;;;;5025342;28;20051;-61
2021/01/26 02:12:23;;;;;;;0.60;0.60;;;20.50;47.40;;;;;;5026709;28;20117;-62
2021/01/26 02:14:53;;;;;;;0.98;0.70;;;20.50;47.30;;;;;;5026128;28;20018;-64
2021/01/26 02:17:34;;;;;;;0.85;0.70;;;20.50;47.40;;;;;;5057714;28;20052;-62
2021/01/26 02:20:21;;;;;;;1.00;0.90;;;20.50;47.40;;;;;;5025828;28;20033;-64
2021/01/26 02:23:11;;;;;;;0.98;0.70;;;20.50;47.40;;;;;;5009760;28;20120;-64
2021/01/26 02:25:49;;;;;;;0.70;0.70;;;20.50;47.40;;;;;;5016305;28;20479;-61
2021/01/26 02:28:33;;;;;;;0.82;0.60;;;20.40;47.30;;;;;;5026523;28;20057;-61
2021/01/26 02:31:31;;;;;;;1.20;0.60;;;20.40;47.40;;;;;;5025745;28;20500;-62
2021/01/26 02:34:15;;;;;;;2.07;0.73;;;20.40;47.40;;;;;;5058004;28;20022;-62
2021/01/26 02:37:13;;;;;;;0.75;0.63;;;20.40;47.40;;;;;;5023357;28;20025;-62
2021/01/26 02:39:53;;;;;;;0.63;0.60;;;20.40;47.40;;;;;;5020720;28;20036;-63
2021/01/26 02:42:43;;;;;;;0.65;0.63;;;20.40;47.40;;;;;;5058074;28;20137;-64
2021/01/26 02:45:09;;;;;;;0.90;0.70;;;20.40;47.40;;;;;;5025627;28;20053;-61
2021/01/26 02:48:09;;;;;;;1.05;0.88;;;20.40;47.40;;;;;;5024904;28;20096;-62
2021/01/26 02:51:10;;;;;;;0.65;0.65;;;20.40;47.40;;;;;;4999016;28;20445;-61
2021/01/26 02:53:51;;;;;;;0.98;0.70;;;20.40;47.90;;;;;;4996134;28;20449;-61
2021/01/26 02:56:44;;;;;;;0.70;0.57;;;20.40;47.40;;;;;;5024095;28;20033;-61
2021/01/26 02:59:41;;;;;;;0.80;0.60;;;20.40;47.50;;;;;;5029424;28;20057;-62
2021/01/26 03:02:06;;;;;;;0.65;0.65;;;20.40;47.40;;;;;;5028560;28;20029;-62
2021/01/26 03:04:41;;;;;;;0.98;0.60;;;20.40;47.50;;;;;;5017829;28;20033;-61
2021/01/26 03:07:09;;;;;;;0.80;0.60;;;20.30;47.40;;;;;;5025764;28;20029;-61
2021/01/26 03:09:43;;;;;;;0.57;0.57;;;20.30;47.40;;;;;;5029087;28;20096;-63
2021/01/26 03:12:24;;;;;;;0.55;0.55;;;20.30;47.40;;;;;;5029435;28;20033;-61
2021/01/26 03:14:58;;;;;;;0.77;0.70;;;20.30;47.40;;;;;;5023283;28;20037;-62
2021/01/26 03:17:44;;;;;;;1.08;0.70;;;20.30;47.40;;;;;;5026224;28;20131;-61
2021/01/26 03:20:18;;;;;;;0.93;0.63;;;20.30;47.50;;;;;;5029078;28;20543;-63
2021/01/26 03:22:51;;;;;;;0.70;0.60;;;20.30;47.50;;;;;;5029179;28;20176;-63
2021/01/26 03:25:20;;;;;;;0.73;0.60;;;20.30;47.50;;;;;;5015908;28;20067;-62
2021/01/26 03:27:48;;;;;;;0.70;0.60;;;20.30;47.50;;;;;;5026977;28;20014;-63
2021/01/26 03:30:19;;;;;;;0.63;0.50;;;20.30;48.00;;;;;;5020292;28;20029;-61
2021/01/26 03:32:50;;;;;;;0.90;0.70;;;20.20;47.50;;;;;;5028779;28;20049;-61
2021/01/26 03:35:17;;;;;;;0.85;0.60;;;20.20;47.50;;;;;;5027435;28;20018;-61
2021/01/26 03:37:50;;;;;;;0.80;0.70;;;20.20;47.50;;;;;;5028551;28;20025;-63
2021/01/26 03:40:16;;;;;;;0.60;0.60;;;20.20;47.50;;;;;;5028497;28;20022;-62
2021/01/26 03:42:41;;;;;;;0.95;0.63;;;20.20;47.50;;;;;;5029379;28;20059;-61
2021/01/26 03:45:08;;;;;;;0.80;0.60;;;20.20;47.50;;;;;;5028339;28;20033;-60
2021/01/26 03:47:52;;;;;;;1.05;0.75;;;20.20;47.50;;;;;;5027904;28;20060;-62
2021/01/26 03:50:38;;;;;;;0.73;0.60;;;20.20;47.50;;;;;;5028406;28;20040;-62
2021/01/26 03:53:41;;;;;;;0.65;0.57;;;20.20;47.50;;;;;;5025645;28;20037;-64
2021/01/26 03:56:33;;;;;;;0.68;0.60;;;20.20;47.50;;;;;;5022914;28;20030;-61
2021/01/26 03:59:23;;;;;;;0.73;0.60;;;20.20;47.60;;;;;;5018296;28;20048;-64
2021/01/26 04:02:04;;;;;;;;;;;20.20;47.60;;;;;;5027714;28;20034;-60
2021/01/26 04:04:47;;;;;;;0.95;0.63;;;20.20;47.60;;;;;;5022360;28;19913;-62
2021/01/26 04:07:32;;;;;;;0.82;0.65;;;20.20;47.60;;;;;;5028185;28;20029;-63
2021/01/26 04:10:04;;;;;;;1.20;0.68;;;20.20;47.60;;;;;;5027864;28;20033;-64
2021/01/26 04:12:35;;;;;;;1.00;0.60;;;20.10;47.60;;;;;;5053112;28;20404;-61
2021/01/26 04:15:09;;;;;;;0.77;0.68;;;20.20;47.70;;;;;;5025986;28;20447;-62
2021/01/26 04:17:40;;;;;;;0.73;0.50;;;20.10;47.70;;;;;;5025575;28;20029;-63
2021/01/26 04:20:20;;;;;;;0.73;0.50;;;20.20;47.80;;;;;;5026398;28;20064;-64
2021/01/26 04:22:55;;;;;;;0.73;0.60;;;20.10;47.70;;;;;;5027974;28;20044;-62
2021/01/26 04:25:27;;;;;;;0.63;0.60;;;20.10;47.70;;;;;;5026525;28;20037;-62
2021/01/26 04:27:53;;;;;;;0.60;0.60;;;20.20;47.80;;;;;;5028333;28;20151;-62
2021/01/26 04:30:19;;;;;;;0.85;0.60;;;20.10;47.70;;;;;;5041940;28;20439;-63
2021/01/26 04:32:45;;;;;;;0.60;0.60;;;20.10;47.70;;;;;;5027291;28;20028;-64
2021/01/26 04:35:11;;;;;;;0.90;0.60;;;20.10;47.70;;;;;;5026737;28;20345;-62
2021/01/26 04:37:37;;;;;;;0.55;0.50;;;20.10;47.70;;;;;;5027361;28;20022;-61
2021/01/26 04:40:04;;;;;;;0.60;0.60;;;20.10;47.80;;;;;;5026830;28;20034;-62
2021/01/26 04:42:35;;;;;;;0.75;0.60;;;20.10;47.70;;;;;;5027737;28;20087;-60
2021/01/26 04:45:24;;;;;;;1.13;0.80;;;20.10;47.80;;;;;;5026629;28;20048;-62
2021/01/26 04:48:03;;;;;;;0.50;0.50;;;20.10;47.80;;;;;;5026707;28;20041;-61
2021/01/26 04:50:54;;;;;;;0.75;0.65;;;20.10;47.80;;;;;;5026609;28;20026;-62
2021/01/26 04:53:43;;;;;;;0.73;0.50;;;20.10;47.80;;;;;;5055328;28;20033;-61
2021/01/26 04:56:19;;;;;;;0.55;0.50;;;20.00;47.80;;;;;;5024054;28;20112;-64
2021/01/26 04:59:06;;;;;;;0.82;0.60;;;20.10;47.80;;;;;;5025020;28;20029;-62
2021/01/26 05:01:53;;;;;;;0.80;0.65;;;20.00;47.80;;;;;;5026101;28;20038;-61
2021/01/26 05:04:28;;;;;;;0.63;0.60;;;20.10;47.80;;;;;;5040397;28;20483;-61
2021/01/26 05:07:06;;;;;;;0.60;0.60;;;20.10;47.90;;;;;;5024607;28;20072;-63
2021/01/26 05:09:55;;;;;;;0.95;0.63;;;20.00;47.80;;;;;;5026762;28;20053;-60
2021/01/26 05:12:23;;;;;;;0.52;0.52;;;20.00;47.80;;;;;;5026485;28;20018;-61
2021/01/26 05:14:54;;;;;;;0.77;0.60;;;20.00;47.80;;;;;;5025724;28;20037;-62
2021/01/26 05:17:32;;;;;;;0.88;0.70;;;20.00;47.80;;;;;;5026240;28;20571;-62
2021/01/26 05:20:13;;;;;;;0.80;0.70;;;20.00;47.80;;;;;;5026647;28;20298;-61
2021/01/26 05:23:01;;;;;;;0.70;0.60;;;20.00;48.40;;;;;;5012293;28;20033;-62
2021/01/26 05:25:27;;;;;;;0.75;0.57;;;20.00;47.80;;;;;;5023514;28;20805;-61
2021/01/26 05:27:53;;;;;;;0.75;0.60;;;20.00;47.80;;;;;;5027316;28;20079;-63
2021/01/26 05:30:28;;;;;;;0.55;0.55;;;20.00;47.80;;;;;;5025675;28;20076;-61
2021/01/26 05:32:54;;;;;;;0.60;0.50;;;20.00;47.90;;;;;;5025364;28;20109;-61
2021/01/26 05:35:20;;;;;;;0.90;0.60;;;20.00;47.80;;;;;;5025409;28;20021;-61
2021/01/26 05:37:50;;;;;;;1.10;0.70;;;20.00;47.90;;;;;;5023653;28;20022;-62
2021/01/26 05:40:27;;;;;;;0.65;0.65;;;20.00;47.90;;;;;;5024938;28;20025;-61
2021/01/26 05:42:55;;;;;;;0.75;0.70;;;20.00;47.80;;;;;;5023123;28;20057;-61
2021/01/26 05:45:36;;;;;;;0.82;0.70;;;20.00;47.80;;;;;;5025014;28;20273;-62
2021/01/26 05:48:09;;;;;;;1.20;0.80;;;20.00;47.80;;;;;;5025136;28;20064;-61
2021/01/26 05:50:37;;;;;;;1.08;0.80;;;20.00;47.70;;;;;;5026094;28;20418;-63
2021/01/26 05:53:13;;;;;;;0.77;0.60;;;20.00;47.70;;;;;;5024572;28;20404;-62
2021/01/26 05:55:46;;;;;;;1.42;0.70;;;20.00;47.70;;;;;;5019059;28;20065;-62
2021/01/26 05:58:13;;;;;;;0.95;0.68;;;20.00;47.70;;;;;;5018262;28;20052;-63
2021/01/26 06:00:41;;;;;;;1.05;0.77;;;20.00;47.80;;;;;;5024725;28;20515;-61
2021/01/26 06:03:12;;;;;;;1.20;0.70;;;20.00;47.80;;;;;;5026219;28;20076;-62
2021/01/26 06:05:40;;;;;;;1.38;0.80;;;20.00;47.80;;;;;;5023246;28;20057;-62
2021/01/26 06:08:12;;;;;;;1.10;0.80;;;20.00;47.80;;;;;;5010535;28;20061;-61
2021/01/26 06:10:41;;;;;;;0.70;0.70;;;20.00;47.80;;;;;;5024786;28;20033;-61
2021/01/26 06:13:07;;;;;;;1.25;0.70;;;20.00;47.90;;;;;;5026503;28;20429;-62
2021/01/26 06:15:42;;;;;;;1.02;0.73;;;20.00;47.90;;;;;;5025886;28;20025;-64
2021/01/26 06:18:12;;;;;;;1.20;0.88;;;20.00;47.90;;;;;;5026028;28;20111;-62
2021/01/26 06:20:38;;;;;;;1.00;0.60;;;20.00;47.90;;;;;;5022108;28;20132;-74
2021/01/26 06:23:20;;;;;;;1.35;0.82;;;20.00;48.00;;;;;;5022713;28;20044;-73
2021/01/26 06:25:52;;;;;;;1.08;0.75;;;20.10;49.10;;;;;;5022668;28;20457;-73
2021/01/26 06:28:27;;;;;;;0.85;0.68;;;20.20;49.40;;;;;;5030787;28;20498;-74
2021/01/26 06:30:58;;;;;;;0.75;0.60;;;20.30;49.40;;;;;;5053991;28;20045;-71
2021/01/26 06:34:10;;;;;;;0.75;0.60;;;20.50;49.50;;;;;;5023085;28;20538;-72
2021/01/26 06:36:45;;;;;;;1.30;0.65;;;20.60;49.00;;;;;;4993181;28;20624;-78
2021/01/26 06:39:26;;;;;;;0.80;0.60;;;20.60;48.80;;;;;;5027217;28;20048;-74
2021/01/26 06:42:13;;;;;;;0.70;0.65;;;20.60;48.80;;;;;;5030016;28;20392;-76
2021/01/26 06:44:57;;;;;;;0.93;0.60;;;20.60;48.80;;;;;;5042673;28;20029;-78
2021/01/26 06:47:41;;;;;;;0.68;0.65;;;20.70;49.20;;;;;;5065831;28;20037;-71
2021/01/26 06:50:34;;;;;;;2.03;0.80;;;20.70;49.50;;;;;;5030717;28;20041;-70
2021/01/26 06:53:27;;;;;;;2.65;0.77;;;21.00;49.80;;;;;;5033304;28;20021;-74
2021/01/26 06:56:12;;;;;;;1.23;0.80;;;21.30;49.60;;;;;;5034028;28;20036;-72
2021/01/26 06:59:02;;;;;;;2.58;1.00;;;21.50;49.30;;;;;;5033501;28;20423;-74
2021/01/26 07:01:28;;;;;;;0.80;0.80;;;21.80;49.00;;;;;;5040001;28;20042;-71
2021/01/26 07:04:19;;;;;;;0.77;0.65;;;22.10;48.80;;;;;;5055276;28;20029;-71
2021/01/26 07:06:51;;;;;;;1.27;0.85;;;22.20;48.30;;;;;;5032088;28;20486;-74
2021/01/26 07:09:31;;;;;;;1.23;0.60;;;22.40;48.20;;;;;;5037320;28;20029;-73
2021/01/26 07:12:21;;;;;;;1.23;0.70;;;22.60;48.10;;;;;;5021469;28;20579;-73
2021/01/26 07:15:00;;;;;;;1.45;0.80;;;22.80;48.10;;;;;;5035186;28;20811;-78
2021/01/26 07:17:45;;;;;;;0.80;0.68;;;23.00;47.80;;;;;;5037796;28;20056;-77
2021/01/26 07:20:36;;;;;;;1.20;0.70;;;23.10;47.70;;;;;;5033013;28;20048;-73
2021/01/26 07:23:38;;;;;;;1.30;0.60;;;23.30;47.40;;;;;;5032218;28;20377;-74
2021/01/26 07:26:30;;;;;;;0.82;0.55;;;23.20;47.10;;;;;;5038021;28;20093;-74
2021/01/26 07:29:05;;;;;;;0.60;0.60;;;23.10;47.40;;;;;;5044284;28;20044;-72
2021/01/26 07:31:43;;;;;;;0.60;0.50;;;23.00;47.70;;;;;;5025815;28;20113;-78
2021/01/26 07:34:32;;;;;;;0.77;0.45;;;22.90;47.80;;;;;;5034607;28;20021;-73
2021/01/26 07:37:10;;;;;;;0.80;0.52;;;22.80;47.90;;;;;;5026638;28;20049;-74
2021/01/26 07:39:46;;;;;;;0.50;0.50;;;22.80;48.00;;;;;;5045448;28;20041;-76
2021/01/26 07:42:20;;;;;;;0.50;0.50;;;22.90;48.60;;;;;;5028401;28;20105;-76
2021/01/26 07:45:05;;;;;;;0.65;0.50;;;23.10;48.00;;;;;;5036826;28;20116;-74
2021/01/26 07:47:36;;;;;;;0.70;0.55;;;23.10;47.90;;;;;;5025671;28;20326;-75
2021/01/26 07:50:11;;;;;;;0.60;0.60;;;23.10;47.30;;;;;;5028016;28;20041;-75
2021/01/26 07:52:41;;;;;;;0.93;0.60;;;22.90;46.40;;;;;;5019702;28;20021;-71
2021/01/26 07:55:12;;;;;;;1.73;0.70;;;22.80;45.70;;;;;;5029500;28;20029;-77
2021/01/26 07:57:51;;;;;;;1.20;0.70;;;22.80;46.20;;;;;;5063273;28;20030;-78
2021/01/26 08:00:22;;;;;;;1.10;0.70;;;23.00;46.20;;;;;;5054351;28;20495;-75
2021/01/26 08:02:53;;;;;;;1.00;0.70;;;23.10;46.20;;;;;;5062147;28;20029;-77
2021/01/26 08:05:57;;;;;;;2.08;0.70;;;23.10;46.40;;;;;;5030747;28;20017;-74
2021/01/26 08:08:36;;;;;;;1.20;0.60;;;23.10;47.20;;;;;;5028696;28;20522;-72
2021/01/26 08:11:21;;;;;;;0.80;0.60;;;23.10;46.90;;;;;;5028211;28;20072;-74
2021/01/26 08:13:55;;;;;;;1.27;0.70;;;23.00;47.10;;;;;;5047027;28;20106;-78
2021/01/26 08:16:29;;;;;;;1.15;0.60;;;23.30;47.60;;;;;;5032944;28;20030;-74
2021/01/26 08:18:55;;;;;;;1.67;0.60;;;23.30;47.20;;;;;;5038377;28;20120;-77
2021/01/26 08:21:32;;;;;;;0.98;0.70;;;23.30;47.20;;;;;;5032875;28;20397;-72
2021/01/26 08:24:18;;;;;;;1.00;0.70;;;23.30;47.30;;;;;;5063158;28;20451;-75
2021/01/26 08:26:45;;;;;;;0.70;0.70;;;23.30;47.40;;;;;;5063774;28;20026;-75
2021/01/26 08:29:10;;;;;;;1.13;0.68;;;23.30;47.50;;;;;;5031169;28;20021;-77
2021/01/26 08:31:40;;;;;;;1.80;0.50;;;23.30;47.60;;;;;;5028735;28;20476;-73
2021/01/26 08:34:21;;;;;;;0.70;0.60;;;23.30;48.10;;;;;;5029955;28;20032;-74
2021/01/26 08:37:07;;;;;;;0.60;0.60;;;23.40;47.80;;;;;;5031506;28;20029;-72
2021/01/26 08:39:46;;;;;;;1.17;0.90;;;23.40;48.00;;;;;;5050598;28;20048;-72
2021/01/26 08:42:40;;;;;;;1.40;0.57;;;23.40;48.20;;;;;;5025333;28;20048;-73
2021/01/26 08:45:07;;;;;;;0.80;0.57;;;23.40;48.60;;;;;;5029153;28;20030;-69
2021/01/26 08:47:48;;;;;;;0.77;0.52;;;23.40;48.40;;;;;;5026625;28;20036;-67
2021/01/26 08:50:35;;;;;;;1.10;0.60;;;23.40;48.50;;;;;;5021389;28;20029;-71
2021/01/26 08:53:19;;;;;;;0.93;0.60;;;23.50;48.90;;;;;;5025352;28;20025;-69
2021/01/26 08:55:53;;;;;;;0.77;0.50;;;23.70;48.70;;;;;;5025890;28;20124;-70
2021/01/26 08:58:44;;;;;;;1.35;0.70;;;23.70;48.70;;;;;;5024831;28;20022;-77
2021/01/26 09:01:23;;;;;;;1.27;0.60;;;23.70;48.80;;;;;;5049789;28;20096;-69
2021/01/26 09:03:53;;;;;;;0.60;0.60;;;23.70;49.10;;;;;;5014784;28;20064;-69
2021/01/26 09:06:38;;;;;;;0.70;0.50;;;23.70;49.40;;;;;;5027763;28;20044;-75
2021/01/26 09:09:06;;;;;;;0.65;0.50;;;23.70;49.40;;;;;;5029921;28;20056;-73
2021/01/26 09:11:43;;;;;;;1.05;0.60;;;23.70;49.60;;;;;;5028912;28;20021;-71
2021/01/26 09:14:25;;;;;;;0.90;0.60;;;23.70;49.70;;;;;;5030486;28;20062;-72
2021/01/26 09:17:07;;;;;;;1.33;0.55;;;23.70;49.60;;;;;;5028423;28;20101;-69
2021/01/26 09:19:50;;;;;;;1.83;0.60;;;23.70;49.60;;;;;;5029433;28;20113;-74
2021/01/26 09:22:23;;;;;;;0.88;0.50;;;23.80;49.90;;;;;;5030520;28;20026;-68
2021/01/26 09:24:53;;;;;;;1.00;0.60;;;23.80;50.10;;;;;;5027633;28;20563;-73
2021/01/26 09:27:27;;;;;;;0.88;0.50;;;23.80;50.70;;;;;;5011938;28;20143;-70
2021/01/26 09:30:15;;;;;;;0.63;0.50;;;23.80;50.60;;;;;;5012397;28;20110;-65
2021/01/26 09:32:47;;;;;;;2.35;0.60;;;23.80;50.70;;;;;;5008246;28;20129;-69
2021/01/26 09:35:35;;;;;;;1.00;0.63;;;23.80;51.00;;;;;;5022197;28;20437;-68
2021/01/26 09:38:20;;;;;;;3.53;0.60;;;23.80;51.00;;;;;;5023268;28;20057;-63
2021/01/26 09:41:01;;;;;;;1.25;0.88;;;23.80;50.70;;;;;;5014124;28;20090;-65
2021/01/26 09:43:36;;;;;;;2.22;0.90;;;23.70;45.50;;;;;;5052204;28;20041;-64
2021/01/26 09:46:05;;;;;;;2.15;1.00;;;23.60;44.30;;;;;;5021067;28;20038;-64
2021/01/26 09:48:45;;;;;;;2.00;1.02;;;23.50;43.90;;;;;;5026505;28;20064;-64
2021/01/26 09:51:15;;;;;;;1.52;0.90;;;23.40;44.10;;;;;;5025926;28;20037;-64
2021/01/26 09:53:44;;;;;;;1.95;0.80;;;23.40;44.00;;;;;;5026986;28;20022;-60
2021/01/26 09:56:10;;;;;;;1.52;0.90;;;23.40;44.00;;;;;;5023368;28;20037;-61
2021/01/26 09:58:37;;;;;;;2.20;1.08;;;23.30;43.70;;;;;;5024721;28;20041;-62
2021/01/26 10:01:04;;;;;;;1.10;0.80;;;23.30;43.60;;;;;;5025056;28;20052;-61
2021/01/26 10:03:30;;;;;;;1.63;0.90;;;23.30;43.70;;;;;;5022301;28;20092;-62
2021/01/26 10:05:59;;;;;;;2.85;1.00;;;23.20;43.70;;;;;;5018467;28;20061;-61
2021/01/26 10:08:33;;;;;;;2.28;0.90;;;23.10;43.70;;;;;;5025249;28;20036;-63
2021/01/26 10:11:14;;;;;;;1.70;0.93;;;23.20;44.00;;;;;;5022269;28;20043;-63
2021/01/26 10:13:41;;;;;;;1.52;0.90;;;23.10;43.90;;;;;;5024644;28;20029;-65
2021/01/26 10:16:28;;;;;;;2.03;0.85;;;23.10;44.10;;;;;;5024734;28;20168;-60
2021/01/26 10:18:55;;;;;;;1.48;0.90;;;23.10;44.00;;;;;;5024971;28;20037;-68
2021/01/26 10:21:31;;;;;;;1.33;0.90;;;23.10;44.20;;;;;;5025768;28;20063;-66
2021/01/26 10:24:21;;;;;;;2.28;0.90;;;23.10;44.40;;;;;;5027161;28;20030;-62
2021/01/26 10:26:48;;;;;;;1.42;0.90;;;23.10;44.40;;;;;;5024114;28;20095;-62
2021/01/26 10:29:18;;;;;;;1.63;1.02;;;23.00;44.30;;;;;;5024638;28;20030;-61
2021/01/26 10:31:46;;;;;;;1.75;1.00;;;23.00;44.40;;;;;;5026027;28;20121;-62
2021/01/26 10:34:34;;;;;;;1.70;1.10;;;23.00;44.50;;;;;;5025233;28;20517;-64
2021/01/26 10:37:22;;;;;;;1.87;0.90;;;23.00;44.50;;;;;;5024972;28;20587;-61
2021/01/26 10:40:12;;;;;;;1.92;0.90;;;23.00;44.40;;;;;;5019599;28;20053;-62
2021/01/26 10:42:40;;;;;;;2.03;1.02;;;23.00;44.50;;;;;;5023552;28;20034;-61
2021/01/26 10:45:07;;;;;;;1.83;0.90;;;22.90;44.40;;;;;;5022018;28;20041;-65
2021/01/26 10:47:36;;;;;;;1.95;0.85;;;22.90;44.50;;;;;;5021548;28;20048;-71
2021/01/26 10:50:10;;;;;;;1.40;0.80;;;22.90;45.30;;;;;;5022248;28;20034;-71
2021/01/26 10:52:46;;;;;;;1.45;0.65;;;22.90;45.50;;;;;;5020060;28;20029;-71
2021/01/26 10:55:14;;;;;;;1.20;0.70;;;22.90;45.90;;;;;;5027454;28;20131;-68
2021/01/26 10:57:41;;;;;;;1.92;0.70;;;23.00;46.10;;;;;;5023526;28;20056;-70
2021/01/26 11:00:08;;;;;;;0.93;0.70;;;23.00;46.60;;;;;;5013331;28;20026;-66
2021/01/26 11:02:34;;;;;;;1.70;0.68;;;23.00;47.40;;;;;;5020470;28;20040;-68
2021/01/26 11:05:00;;;;;;;1.35;0.60;;;23.10;47.30;;;;;;5020991;28;20041;-66
2021/01/26 11:07:26;;;;;;;1.88;1.00;;;23.10;47.30;;;;;;5025276;28;20037;-69
2021/01/26 11:09:51;;;;;;;1.25;0.70;;;23.10;47.50;;;;;;5025845;28;20037;-72
2021/01/26 11:12:20;;;;;;;1.95;0.85;;;23.10;47.90;;;;;;5029247;28;20076;-72
2021/01/26 11:14:47;;;;;;;2.50;0.90;;;23.10;46.60;;;;;;5029552;28;20120;-72
2021/01/26 11:17:13;;;;;;;2.08;1.10;;;23.10;45.80;;;;;;5042332;28;20084;-71
2021/01/26 11:19:40;;;;;;;1.50;1.00;;;23.00;45.40;;;;;;5029457;28;20476;-71
2021/01/26 11:22:06;;;;;;;1.70;0.90;;;23.00;45.10;;;;;;5025604;28;20036;-71
2021/01/26 11:24:31;;;;;;;1.80;1.17;;;23.00;45.00;;;;;;5021000;28;20033;-71
2021/01/26 11:26:57;;;;;;;1.63;0.70;;;23.00;45.00;;;;;;5060252;28;20038;-62
2021/01/26 11:29:23;;;;;;;1.02;0.73;;;22.90;44.80;;;;;;5018836;28;20079;-69
2021/01/26 11:31:49;;;;;;;1.27;0.85;;;22.90;44.70;;;;;;5029522;28;20053;-72
2021/01/26 11:34:15;;;;;;;1.17;0.82;;;22.90;44.80;;;;;;5061486;28;20030;-75
2021/01/26 11:36:41;;;;;;;1.75;0.90;;;22.90;44.70;;;;;;5062807;28;20017;-71
2021/01/26 11:39:06;;;;;;;1.95;1.10;;;22.90;44.60;;;;;;5059988;28;20117;-73
2021/01/26 11:41:33;;;;;;;1.27;0.80;;;22.90;44.50;;;;;;5030103;28;20730;-73
2021/01/26 11:43:58;;;;;;;1.48;0.90;;;22.90;44.50;;;;;;5019080;28;20125;-68
2021/01/26 11:46:25;;;;;;;3.25;1.05;;;22.90;44.40;;;;;;5029070;28;20109;-69
2021/01/26 11:48:51;;;;;;;1.42;0.90;;;22.90;45.00;;;;;;5025835;28;20037;-69
2021/01/26 11:51:16;;;;;;;2.33;1.00;;;22.90;44.50;;;;;;5010091;28;20034;-69
2021/01/26 11:53:42;;;;;;;2.10;1.00;;;22.90;44.50;;;;;;5018628;28;20439;-69
2021/01/26 11:56:08;;;;;;;1.48;0.85;;;22.90;44.60;;;;;;5029650;28;20340;-71
2021/01/26 11:58:35;;;;;;;2.05;1.10;;;22.90;44.50;;;;;;5021079;28;20030;-67
2021/01/26 12:01:01;;;;;;;1.35;0.80;;;22.90;44.70;;;;;;5027252;28;20037;-65
2021/01/26 12:03:26;;;;;;;1.63;0.73;;;22.80;44.70;;;;;;5029456;28;20025;-68
2021/01/26 12:05:52;;;;;;;1.55;0.82;;;22.80;44.60;;;;;;5028800;28;20037;-69
2021/01/26 12:08:18;;;;;;;2.45;0.98;;;22.80;44.70;;;;;;5025744;28;20049;-68
2021/01/26 12:10:44;;;;;;;1.70;0.90;;;22.80;44.70;;;;;;5029144;28;20591;-72
2021/01/26 12:13:11;;;;;;;1.27;0.80;;;22.90;44.70;;;;;;5030050;28;20030;-64
2021/01/26 12:15:40;;;;;;;1.10;0.70;;;22.80;44.70;;;;;;5029261;28;20365;-67
2021/01/26 12:18:06;;;;;;;2.15;0.85;;;22.80;44.70;;;;;;5027949;28;20359;-69
2021/01/26 12:20:32;;;;;;;1.65;0.95;;;22.80;44.80;;;;;;5028068;28;20132;-67
2021/01/26 12:22:59;;;;;;;1.20;0.82;;;22.80;44.80;;;;;;5028867;28;20021;-65
2021/01/26 12:25:27;;;;;;;1.17;0.90;;;22.80;44.80;;;;;;5029252;28;20124;-69
2021/01/26 12:27:53;;;;;;;1.52;0.90;;;22.80;44.80;;;;;;5027602;28;20055;-70
2021/01/26 12:30:19;;;;;;;1.98;0.98;;;22.80;44.80;;;;;;5025626;28;20030;-69
2021/01/26 12:32:45;;;;;;;1.20;0.80;;;22.80;44.90;;;;;;5024989;28;20061;-69
2021/01/26 12:35:27;;;;;;;1.92;1.00;;;22.80;45.00;;;;;;5028373;28;20033;-71
2021/01/26 12:37:53;;;;;;;1.00;0.73;;;22.80;45.00;;;;;;5028187;28;20044;-72
2021/01/26 12:40:19;;;;;;;1.15;0.73;;;22.80;45.00;;;;;;5030805;28;20033;-72
2021/01/26 12:42:45;;;;;;;1.95;0.80;;;22.80;44.90;;;;;;5061587;28;20104;-70
2021/01/26 12:45:13;;;;;;;1.92;1.00;;;22.80;44.90;;;;;;5028545;28;20049;-68
2021/01/26 12:47:39;;;;;;;1.58;0.90;;;22.80;45.00;;;;;;5027849;28;20074;-70
2021/01/26 12:50:06;;;;;;;1.13;0.80;;;22.80;44.90;;;;;;5024884;28;20466;-70
2021/01/26 12:52:32;;;;;;;1.85;0.98;;;22.70;45.00;;;;;;5060332;28;20025;-68
2021/01/26 12:54:57;;;;;;;2.80;0.75;;;22.80;45.10;;;;;;5026676;28;20567;-70
2021/01/26 12:57:23;;;;;;;1.92;0.80;;;22.70;45.00;;;;;;5027278;28;20036;-69
2021/01/26 12:59:51;;;;;;;1.17;0.80;;;22.80;45.00;;;;;;5021696;28;20029;-69
2021/01/26 13:02:17;;;;;;;1.08;0.70;;;22.70;44.90;;;;;;5024517;28;20073;-69
2021/01/26 13:04:43;;;;;;;1.50;0.90;;;22.80;44.90;;;;;;5020001;28;20052;-71
2021/01/26 13:07:09;;;;;;;1.58;1.00;;;22.70;44.90;;;;;;5027250;28;20030;-69
2021/01/26 13:09:34;;;;;;;2.70;1.10;;;22.70;44.90;;;;;;5029084;28;20044;-69
2021/01/26 13:12:00;;;;;;;1.17;0.90;;;22.70;45.00;;;;;;5029609;28;20029;-67
2021/01/26 13:14:25;;;;;;;1.52;1.00;;;22.70;44.90;;;;;;5026452;28;20017;-66
2021/01/26 13:16:51;;;;;;;1.00;0.70;;;22.70;44.90;;;;;;5024842;28;20025;-65
2021/01/26 13:19:17;;;;;;;1.10;0.70;;;22.70;45.00;;;;;;5012825;28;20037;-69